createdAt,value
2018-05-11T00:00:06.439Z,12.30
2018-05-11T00:02:34.531Z,12.30
2018-05-11T00:05:05.640Z,12.30
2018-05-11T00:07:33.755Z,12.30
2018-05-11T00:10:06.481Z,12.30
2018-05-11T00:12:34.574Z,12.30
2018-05-11T00:15:07.356Z,12.30
2018-05-11T00:17:35.695Z,12.30
2018-05-11T00:20:03.792Z,12.30
2018-05-11T00:22:35.917Z,12.30
2018-05-11T00:25:06.797Z,12.30
2018-05-11T00:27:35.862Z,12.30
2018-05-11T00:30:04.909Z,12.30
2018-05-11T00:32:33.984Z,12.30
2018-05-11T00:35:02.987Z,12.20
2018-05-11T00:37:32.060Z,12.30
2018-05-11T00:40:16.810Z,12.20
2018-05-11T00:42:44.912Z,12.20
2018-05-11T00:45:15.032Z,12.20
2018-05-11T00:47:43.116Z,12.20
2018-05-11T00:50:12.200Z,12.20
2018-05-11T00:52:42.003Z,12.10
2018-05-11T00:55:25.066Z,12.10
2018-05-11T00:57:53.176Z,12.10
2018-05-11T01:00:21.329Z,12.20
2018-05-11T01:02:49.421Z,12.20
2018-05-11T01:05:27.471Z,12.20
2018-05-11T01:07:55.565Z,12.20
2018-05-11T01:10:23.642Z,12.20
2018-05-11T01:12:51.740Z,12.20
2018-05-11T01:15:24.676Z,12.20
2018-05-11T01:20:53.079Z,12.20
2018-05-11T01:23:26.963Z,12.10
2018-05-11T01:25:55.022Z,12.10
2018-05-11T01:28:23.149Z,12.10
2018-05-11T01:30:52.992Z,12.10
2018-05-11T01:33:25.334Z,12.10
2018-05-11T01:35:53.444Z,12.10
2018-05-11T01:38:22.293Z,12.10
2018-05-11T01:40:51.365Z,12.10
2018-05-11T01:43:20.217Z,12.00
2018-05-11T01:45:48.310Z,12.00
2018-05-11T01:48:23.169Z,12.00
2018-05-11T01:50:51.261Z,12.00
2018-05-11T01:53:22.051Z,12.00
2018-05-11T01:55:50.144Z,12.00
2018-05-11T01:58:19.924Z,12.00
2018-05-11T02:00:51.711Z,11.90
2018-05-11T02:03:34.992Z,11.90
2018-05-11T02:06:07.652Z,12.00
2018-05-11T02:08:39.825Z,12.00
2018-05-11T02:11:08.822Z,12.00
2018-05-11T02:13:38.675Z,12.00
2018-05-11T02:16:08.676Z,11.90
2018-05-11T02:18:37.699Z,12.00
2018-05-11T02:21:05.851Z,12.00
2018-05-11T02:23:35.899Z,12.00
2018-05-11T02:26:04.023Z,12.00
2018-05-11T02:28:32.089Z,12.00
2018-05-11T02:31:01.176Z,11.90
2018-05-11T02:33:29.292Z,11.90
2018-05-11T02:35:57.395Z,12.00
2018-05-11T02:38:27.403Z,11.90
2018-05-11T02:40:55.514Z,11.90
2018-05-11T02:43:23.611Z,11.90
2018-05-11T02:45:51.712Z,11.90
2018-05-11T02:48:20.674Z,11.80
2018-05-11T02:51:11.730Z,11.80
2018-05-11T02:53:39.825Z,11.80
2018-05-11T02:56:09.660Z,11.80
2018-05-11T02:58:39.716Z,11.70
2018-05-11T03:01:07.885Z,11.70
2018-05-11T03:03:36.915Z,11.70
2018-05-11T03:06:05.985Z,11.70
2018-05-11T03:08:34.090Z,11.80
2018-05-11T03:11:02.201Z,11.80
2018-05-11T03:13:30.303Z,11.80
2018-05-11T03:15:59.421Z,11.80
2018-05-11T03:18:27.576Z,11.80
2018-05-11T03:20:56.524Z,11.80
2018-05-11T03:23:25.445Z,11.80
2018-05-11T03:25:55.074Z,11.70
2018-05-11T03:28:25.109Z,11.80
2018-05-11T03:30:55.118Z,11.80
2018-05-11T03:33:23.209Z,11.80
2018-05-11T03:35:51.291Z,11.80
2018-05-11T03:38:19.389Z,11.80
2018-05-11T03:40:48.403Z,11.70
2018-05-11T03:43:23.532Z,11.80
2018-05-11T03:45:51.674Z,11.80
2018-05-11T03:48:19.758Z,11.80
2018-05-11T03:50:50.865Z,11.80
2018-05-11T03:53:20.932Z,11.80
2018-05-11T03:55:49.041Z,11.80
2018-05-11T03:58:17.939Z,11.80
2018-05-11T04:00:46.004Z,11.80
2018-05-11T04:03:25.914Z,11.80
2018-05-11T04:06:01.558Z,11.80
2018-05-11T04:08:51.219Z,11.80
2018-05-11T04:11:23.462Z,11.80
2018-05-11T04:13:51.578Z,11.80
2018-05-11T04:16:19.643Z,11.80
2018-05-11T04:18:47.744Z,11.70
2018-05-11T04:21:15.849Z,11.70
2018-05-11T04:23:50.220Z,12.00
2018-05-11T04:26:20.297Z,12.60
2018-05-11T04:28:50.394Z,13.10
2018-05-11T04:31:22.173Z,13.10
2018-05-11T04:33:50.309Z,12.60
2018-05-11T04:36:18.455Z,12.10
2018-05-11T04:38:47.529Z,11.90
2018-05-11T04:41:15.620Z,11.70
2018-05-11T04:43:43.731Z,11.60
2018-05-11T04:46:19.751Z,11.60
2018-05-11T04:48:48.633Z,11.60
2018-05-11T04:51:19.931Z,11.50
2018-05-11T04:53:54.329Z,11.60
2018-05-11T04:56:22.423Z,11.70
2018-05-11T04:58:51.283Z,12.00
2018-05-11T05:01:19.461Z,12.00
2018-05-11T05:03:48.441Z,12.10
2018-05-11T05:06:16.534Z,12.20
2018-05-11T05:08:44.619Z,12.40
2018-05-11T05:11:12.701Z,12.50
2018-05-11T05:13:41.726Z,12.60
2018-05-11T05:16:10.844Z,12.70
2018-05-11T05:18:43.557Z,12.80
2018-05-11T05:21:13.563Z,12.90
2018-05-11T05:23:42.667Z,12.80
2018-05-11T05:26:12.662Z,12.90
2018-05-11T05:28:40.746Z,13.00
2018-05-11T05:31:08.835Z,13.10
2018-05-11T05:33:36.954Z,13.20
2018-05-11T05:36:05.114Z,13.20
2018-05-11T05:38:33.226Z,13.20
2018-05-11T05:41:03.333Z,13.10
2018-05-11T05:43:38.261Z,13.10
2018-05-11T05:46:06.375Z,13.10
2018-05-11T05:48:40.556Z,13.20
2018-05-11T05:51:12.013Z,13.20
2018-05-11T05:53:40.300Z,13.20
2018-05-11T05:56:08.403Z,13.30
2018-05-11T05:58:49.390Z,13.40
2018-05-11T06:01:19.749Z,13.50
2018-05-11T06:03:47.844Z,13.50
2018-05-11T06:06:18.650Z,13.50
2018-05-11T06:08:48.479Z,13.60
2018-05-11T06:11:17.368Z,13.60
2018-05-11T06:13:47.221Z,13.60
2018-05-11T06:16:20.225Z,13.60
2018-05-11T06:18:55.634Z,13.70
2018-05-11T06:21:24.684Z,13.70
2018-05-11T06:24:00.342Z,13.70
2018-05-11T06:26:32.484Z,13.90
2018-05-11T06:29:02.217Z,14.30
2018-05-11T06:31:32.169Z,14.40
2018-05-11T06:34:00.605Z,14.60
2018-05-11T06:36:29.710Z,14.70
2018-05-11T06:38:59.806Z,14.50
2018-05-11T06:41:27.936Z,14.40
2018-05-11T06:43:56.013Z,14.50
2018-05-11T06:46:25.880Z,14.20
2018-05-11T06:48:53.986Z,13.90
2018-05-11T06:51:22.091Z,13.70
2018-05-11T06:53:51.196Z,13.80
2018-05-11T06:56:23.383Z,13.80
2018-05-11T06:58:52.033Z,13.70
2018-05-11T07:01:21.939Z,13.80
2018-05-11T07:03:50.059Z,13.80
2018-05-11T07:06:18.137Z,14.00
2018-05-11T07:08:46.237Z,14.00
2018-05-11T07:11:15.349Z,14.00
2018-05-11T07:13:45.473Z,13.80
2018-05-11T07:16:13.579Z,13.90
2018-05-11T07:18:41.669Z,14.00
2018-05-11T07:21:14.686Z,14.10
2018-05-11T07:23:53.160Z,14.00
2018-05-11T07:26:21.283Z,13.90
2018-05-11T07:28:49.392Z,13.80
2018-05-11T07:31:18.428Z,13.80
2018-05-11T07:33:46.522Z,13.80
2018-05-11T07:36:19.071Z,13.80
2018-05-11T07:38:50.812Z,13.70
2018-05-11T07:41:20.849Z,13.70
2018-05-11T07:43:49.003Z,13.70
2018-05-11T07:46:19.045Z,13.80
2018-05-11T07:48:47.162Z,13.90
2018-05-11T07:51:15.293Z,14.00
2018-05-11T07:53:43.372Z,14.10
2018-05-11T07:56:13.479Z,14.40
2018-05-11T07:58:41.634Z,14.60
2018-05-11T08:01:22.944Z,14.70
2018-05-11T08:03:51.138Z,14.50
2018-05-11T08:06:20.092Z,14.30
2018-05-11T08:08:48.202Z,14.30
2018-05-11T08:11:16.305Z,14.10
2018-05-11T08:13:44.388Z,14.10
2018-05-11T08:16:12.492Z,14.20
2018-05-11T08:18:45.006Z,14.50
2018-05-11T08:21:13.140Z,14.50
2018-05-11T08:23:41.180Z,14.60
2018-05-11T08:26:09.316Z,14.70
2018-05-11T08:28:37.473Z,14.50
2018-05-11T08:31:05.730Z,14.40
2018-05-11T08:33:33.819Z,14.40
2018-05-11T08:36:06.150Z,14.40
2018-05-11T08:38:42.833Z,14.50
2018-05-11T08:41:11.054Z,14.80
2018-05-11T08:43:41.874Z,15.00
2018-05-11T08:46:12.742Z,15.00
2018-05-11T08:48:41.111Z,14.90
2018-05-11T08:51:09.225Z,14.70
2018-05-11T08:53:37.319Z,14.70
2018-05-11T08:56:06.099Z,14.60
2018-05-11T08:58:34.268Z,14.50
2018-05-11T09:01:02.392Z,14.50
2018-05-11T09:03:30.523Z,14.60
2018-05-11T09:05:58.661Z,14.80
2018-05-11T09:08:28.566Z,14.80
2018-05-11T09:10:56.644Z,14.80
2018-05-11T09:13:28.565Z,14.90
2018-05-11T09:15:58.198Z,14.90
2018-05-11T09:18:26.814Z,15.00
2018-05-11T09:20:55.908Z,15.10
2018-05-11T09:23:25.940Z,15.00
2018-05-11T09:25:54.803Z,15.00
2018-05-11T09:28:23.559Z,15.00
2018-05-11T09:30:51.649Z,15.10
2018-05-11T09:33:19.830Z,15.20
2018-05-11T09:35:47.955Z,15.20
2018-05-11T09:38:16.081Z,15.30
2018-05-11T09:40:45.383Z,15.50
2018-05-11T09:43:26.003Z,15.60
2018-05-11T09:45:54.891Z,15.70
2018-05-11T09:48:23.518Z,15.70
2018-05-11T09:51:01.474Z,15.70
2018-05-11T09:53:30.677Z,15.90
2018-05-11T09:56:05.401Z,16.10
2018-05-11T09:58:33.511Z,16.20
2018-05-11T10:01:02.141Z,16.30
2018-05-11T10:03:30.229Z,16.40
2018-05-11T10:05:58.315Z,16.50
2018-05-11T10:08:27.314Z,16.70
2018-05-11T10:10:55.418Z,17.00
2018-05-11T10:13:24.341Z,17.30
2018-05-11T10:15:52.435Z,17.30
2018-05-11T10:18:20.563Z,17.40
2018-05-11T10:20:53.300Z,17.60
2018-05-11T10:23:21.331Z,17.80
2018-05-11T10:25:49.469Z,17.90
2018-05-11T10:28:17.569Z,17.90
2018-05-11T10:30:45.651Z,18.00
2018-05-11T10:33:13.748Z,18.20
2018-05-11T10:35:41.857Z,18.20
2018-05-11T10:38:10.001Z,18.20
2018-05-11T10:40:38.146Z,18.40
2018-05-11T10:43:13.310Z,18.60
2018-05-11T10:45:42.258Z,18.70
2018-05-11T10:48:10.400Z,18.70
2018-05-11T10:50:39.505Z,19.00
2018-05-11T10:53:09.708Z,19.00
2018-05-11T10:55:37.796Z,19.40
2018-05-11T10:58:06.259Z,19.30
2018-05-11T11:00:36.464Z,19.40
2018-05-11T11:03:05.893Z,19.50
2018-05-11T11:05:34.083Z,19.90
2018-05-11T11:08:03.133Z,19.90
2018-05-11T11:10:31.209Z,19.90
2018-05-11T11:12:59.302Z,19.80
2018-05-11T11:15:29.393Z,19.70
2018-05-11T11:17:59.418Z,19.60
2018-05-11T11:20:27.550Z,19.80
2018-05-11T11:22:55.999Z,20.00
2018-05-11T11:25:25.876Z,20.10
2018-05-11T11:28:01.157Z,20.20
2018-05-11T11:30:29.340Z,20.20
2018-05-11T11:32:57.535Z,20.20
2018-05-11T11:35:29.203Z,20.20
2018-05-11T11:37:57.342Z,20.10
2018-05-11T11:40:25.492Z,20.10
2018-05-11T11:42:54.708Z,20.00
2018-05-11T11:45:23.390Z,20.00
2018-05-11T11:47:51.502Z,20.10
2018-05-11T11:50:19.600Z,20.30
2018-05-11T11:52:47.757Z,20.40
2018-05-11T11:55:16.173Z,20.70
2018-05-11T11:57:45.293Z,21.10
2018-05-11T12:00:17.375Z,21.40
2018-05-11T12:02:45.486Z,21.10
2018-05-11T12:05:13.578Z,21.00
2018-05-11T12:07:41.706Z,21.20
2018-05-11T12:10:09.905Z,21.20
2018-05-11T12:12:40.434Z,21.20
2018-05-11T12:15:15.347Z,21.10
2018-05-11T12:17:44.449Z,21.30
2018-05-11T12:20:12.568Z,21.40
2018-05-11T12:22:40.778Z,21.20
2018-05-11T12:25:08.923Z,21.00
2018-05-11T12:27:41.605Z,21.20
2018-05-11T12:30:09.853Z,21.20
2018-05-11T12:32:38.956Z,21.30
2018-05-11T12:35:13.474Z,21.20
2018-05-11T12:37:41.561Z,21.60
2018-05-11T12:40:10.173Z,21.90
2018-05-11T12:42:38.298Z,22.20
2018-05-11T12:45:06.496Z,22.30
2018-05-11T12:47:34.701Z,22.10
2018-05-11T12:50:02.853Z,21.90
2018-05-11T12:52:31.859Z,21.90
2018-05-11T12:54:59.969Z,22.00
2018-05-11T12:57:28.833Z,22.10
2018-05-11T12:59:58.992Z,22.20
2018-05-11T13:02:33.628Z,22.10
2018-05-11T13:05:01.741Z,21.80
2018-05-11T13:07:29.837Z,21.30
2018-05-11T13:09:58.889Z,20.60
2018-05-11T13:12:27.110Z,20.60
2018-05-11T13:14:55.187Z,20.70
2018-05-11T13:17:24.764Z,20.70
2018-05-11T13:19:52.333Z,20.40
2018-05-11T13:22:29.680Z,20.60
2018-05-11T13:24:57.764Z,20.80
2018-05-11T13:27:25.910Z,21.10
2018-05-11T13:29:56.004Z,21.20
2018-05-11T13:32:27.966Z,20.90
2018-05-11T13:34:57.006Z,20.90
2018-05-11T13:37:27.335Z,20.60
2018-05-11T13:39:56.814Z,20.80
2018-05-11T13:42:25.878Z,21.10
2018-05-11T13:45:05.646Z,20.80
2018-05-11T13:47:35.810Z,20.60
2018-05-11T13:50:05.848Z,20.40
2018-05-11T13:52:33.943Z,20.50
2018-05-11T13:55:06.062Z,20.50
2018-05-11T13:57:35.536Z,20.30
2018-05-11T14:00:03.899Z,20.20
2018-05-11T14:02:32.644Z,20.40
2018-05-11T14:05:00.769Z,20.50
2018-05-11T14:07:31.443Z,20.90
2018-05-11T14:09:59.533Z,20.90
2018-05-11T14:12:29.222Z,21.20
2018-05-11T14:14:58.257Z,21.60
2018-05-11T14:17:26.403Z,21.50
2018-05-11T14:19:54.485Z,21.70
2018-05-11T14:22:22.609Z,21.80
2018-05-11T14:24:50.885Z,21.80
2018-05-11T14:27:18.895Z,21.70
2018-05-11T14:29:47.797Z,21.90
2018-05-11T14:32:16.756Z,21.90
2018-05-11T14:34:44.876Z,21.90
2018-05-11T14:37:15.029Z,22.10
2018-05-11T14:39:43.164Z,22.30
2018-05-11T14:42:11.902Z,22.30
2018-05-11T14:44:40.957Z,21.90
2018-05-11T14:47:09.118Z,21.60
2018-05-11T14:49:42.139Z,21.00
2018-05-11T14:52:11.759Z,20.70
2018-05-11T14:54:40.096Z,20.10
2018-05-11T14:57:07.645Z,20.10
2018-05-11T14:59:35.272Z,19.90
2018-05-11T15:02:02.797Z,19.70
2018-05-11T15:04:30.384Z,19.40
2018-05-11T15:06:57.993Z,19.50
2018-05-11T15:09:25.588Z,19.60
2018-05-11T15:11:53.094Z,19.60
2018-05-11T15:14:22.883Z,20.10
2018-05-11T15:16:53.251Z,20.50
2018-05-11T15:19:24.052Z,20.40
2018-05-11T15:21:54.583Z,21.10
2018-05-11T15:24:22.134Z,21.10
2018-05-11T15:26:50.322Z,21.40
2018-05-11T15:29:17.947Z,21.50
2018-05-11T15:31:45.528Z,21.60
2018-05-11T15:34:14.120Z,21.60
2018-05-11T15:36:44.647Z,21.40
2018-05-11T15:39:13.774Z,21.40
2018-05-11T15:41:41.312Z,21.40
2018-05-11T15:44:09.609Z,21.20
2018-05-11T15:46:39.209Z,21.10
2018-05-11T15:49:06.795Z,20.90
2018-05-11T15:51:34.351Z,20.80
2018-05-11T15:54:02.445Z,20.90
2018-05-11T15:56:30.573Z,20.80
2018-05-11T15:58:59.768Z,20.70
2018-05-11T16:01:27.922Z,20.50
2018-05-11T16:04:00.137Z,20.30
2018-05-11T16:06:29.248Z,20.20
2018-05-11T16:09:07.043Z,20.10
2018-05-11T16:11:35.141Z,20.20
2018-05-11T16:14:09.946Z,20.10
2018-05-11T16:16:38.818Z,20.00
2018-05-11T16:19:07.704Z,20.20
2018-05-11T16:24:33.258Z,20.20
2018-05-11T16:27:01.396Z,20.20
2018-05-11T16:29:35.852Z,20.20
2018-05-11T16:32:16.041Z,20.00
2018-05-11T16:34:44.307Z,19.90
2018-05-11T16:37:16.161Z,19.90
2018-05-11T16:39:45.188Z,20.10
2018-05-11T16:42:17.495Z,20.20
2018-05-11T16:44:45.661Z,20.30
2018-05-11T16:47:13.755Z,20.30
2018-05-11T16:49:41.851Z,20.20
2018-05-11T16:52:13.181Z,20.20
2018-05-11T16:54:47.989Z,20.40
2018-05-11T16:57:16.092Z,20.40
2018-05-11T16:59:46.114Z,20.60
2018-05-11T17:02:14.206Z,20.60
2018-05-11T17:04:42.302Z,20.50
2018-05-11T17:07:10.433Z,20.40
2018-05-11T17:09:39.284Z,20.10
2018-05-11T17:12:07.633Z,20.10
2018-05-11T17:14:35.907Z,20.00
2018-05-11T17:17:04.047Z,19.90
2018-05-11T17:19:32.150Z,20.00
2018-05-11T17:22:00.305Z,19.90
2018-05-11T17:24:33.287Z,19.90
2018-05-11T17:27:05.396Z,19.80
2018-05-11T17:29:33.492Z,19.90
2018-05-11T17:32:01.593Z,19.80
2018-05-11T17:34:29.667Z,19.80
2018-05-11T17:36:57.768Z,19.70
2018-05-11T17:39:25.964Z,19.70
2018-05-11T17:41:54.042Z,19.60
2018-05-11T17:44:22.641Z,19.50
2018-05-11T17:46:50.775Z,19.40
2018-05-11T17:49:28.455Z,19.40
2018-05-11T17:51:57.321Z,19.20
2018-05-11T17:54:25.451Z,19.20
2018-05-11T17:56:54.384Z,19.10
2018-05-11T17:59:22.497Z,19.10
2018-05-11T18:01:50.603Z,19.00
2018-05-11T18:04:19.576Z,19.10
2018-05-11T18:06:48.649Z,19.00
2018-05-11T18:09:16.743Z,19.00
2018-05-11T18:11:49.115Z,18.90
2018-05-11T18:14:17.205Z,18.90
2018-05-11T18:16:49.470Z,18.90
2018-05-11T18:19:22.508Z,18.80
2018-05-11T18:21:52.754Z,18.80
2018-05-11T18:24:20.844Z,18.80
2018-05-11T18:26:50.013Z,18.70
2018-05-11T18:29:18.143Z,18.60
2018-05-11T18:31:47.208Z,18.40
2018-05-11T18:34:17.251Z,18.40
2018-05-11T18:36:45.479Z,18.30
2018-05-11T18:39:14.499Z,18.30
2018-05-11T18:41:43.370Z,18.20
2018-05-11T18:44:12.457Z,18.20
2018-05-11T18:46:40.550Z,18.20
2018-05-11T18:49:09.618Z,18.10
2018-05-11T18:51:38.663Z,18.10
2018-05-11T18:54:07.066Z,18.10
2018-05-11T18:56:34.860Z,18.10
2018-05-11T18:59:03.831Z,18.00
2018-05-11T19:01:31.961Z,18.00
2018-05-11T19:04:05.971Z,18.00
2018-05-11T19:06:34.057Z,18.00
2018-05-11T19:09:02.231Z,17.90
2018-05-11T19:11:31.096Z,17.90
2018-05-11T19:14:02.522Z,17.90
2018-05-11T19:16:30.624Z,17.90
2018-05-11T19:18:58.714Z,17.90
2018-05-11T19:21:31.334Z,17.70
2018-05-11T19:24:01.333Z,17.70
2018-05-11T19:26:32.260Z,17.40
2018-05-11T19:29:02.109Z,17.30
2018-05-11T19:31:36.056Z,17.30
2018-05-11T19:34:04.196Z,17.20
2018-05-11T19:36:32.278Z,17.10
2018-05-11T19:39:02.816Z,17.00
2018-05-11T19:41:30.938Z,16.80
2018-05-11T19:44:00.735Z,16.80
2018-05-11T19:46:31.997Z,16.80
2018-05-11T19:49:01.032Z,16.70
2018-05-11T19:51:29.211Z,16.70
2018-05-11T19:53:58.259Z,16.60
2018-05-11T19:56:28.943Z,16.50
2018-05-11T19:58:57.033Z,16.50
2018-05-11T20:01:26.167Z,16.50
2018-05-11T20:03:57.203Z,16.40
2018-05-11T20:06:25.389Z,16.20
2018-05-11T20:08:53.470Z,16.10
2018-05-11T20:11:21.598Z,16.10
2018-05-11T20:13:50.690Z,16.10
2018-05-11T20:16:18.779Z,16.00
2018-05-11T20:18:46.883Z,16.10
2018-05-11T20:21:16.001Z,16.10
2018-05-11T20:23:45.759Z,16.10
2018-05-11T20:26:13.855Z,16.00
2018-05-11T20:28:42.974Z,16.00
2018-05-11T20:31:12.097Z,15.90
2018-05-11T20:33:40.199Z,15.80
2018-05-11T20:36:08.762Z,15.80
2018-05-11T20:38:38.976Z,15.80
2018-05-11T20:41:07.073Z,15.70
2018-05-11T20:43:35.217Z,15.70
2018-05-11T20:46:03.315Z,15.60
2018-05-11T20:48:34.361Z,15.60
2018-05-11T20:51:03.451Z,15.60
2018-05-11T20:53:34.274Z,15.50
2018-05-11T20:56:02.358Z,15.50
2018-05-11T20:58:30.460Z,15.40
2018-05-11T21:00:58.586Z,15.40
2018-05-11T21:03:27.222Z,15.40
2018-05-11T21:05:55.314Z,15.30
2018-05-11T21:08:23.404Z,15.30
2018-05-11T21:10:51.514Z,15.30
2018-05-11T21:13:19.597Z,15.30
2018-05-11T21:15:49.664Z,15.20
2018-05-11T21:18:18.695Z,15.20
2018-05-11T21:20:51.127Z,15.20
2018-05-11T21:23:19.243Z,15.20
2018-05-11T21:25:54.216Z,15.20
2018-05-11T21:28:22.324Z,15.20
2018-05-11T21:30:51.198Z,15.20
2018-05-11T21:33:25.731Z,15.20
2018-05-11T21:35:54.533Z,15.20
2018-05-11T21:38:28.582Z,15.20
2018-05-11T21:40:57.490Z,15.10
2018-05-11T21:43:25.550Z,15.10
2018-05-11T21:45:53.644Z,15.10
2018-05-11T21:48:22.526Z,15.00
2018-05-11T21:50:50.603Z,15.00
2018-05-11T21:53:22.662Z,15.00
2018-05-11T21:55:50.762Z,15.10
2018-05-11T21:58:27.518Z,15.10
2018-05-11T22:00:56.030Z,15.10
2018-05-11T22:03:24.106Z,15.10
2018-05-11T22:05:59.643Z,15.10
2018-05-11T22:08:30.818Z,15.00
2018-05-11T22:10:58.947Z,15.00
2018-05-11T22:13:27.137Z,15.10
2018-05-11T22:15:55.911Z,15.10
2018-05-11T22:18:25.903Z,15.10
2018-05-11T22:20:54.043Z,15.10
2018-05-11T22:23:22.117Z,15.00
2018-05-11T22:25:52.252Z,15.10
2018-05-11T22:28:20.352Z,15.00
2018-05-11T22:30:48.434Z,15.00
2018-05-11T22:33:16.532Z,14.90
2018-05-11T22:35:45.372Z,14.90
2018-05-11T22:38:16.541Z,14.80
2018-05-11T22:40:44.632Z,14.80
2018-05-11T22:43:13.693Z,14.70
2018-05-11T22:45:43.768Z,14.70
2018-05-11T22:48:13.869Z,14.60
2018-05-11T22:50:42.869Z,14.60
2018-05-11T22:53:10.980Z,14.60
2018-05-11T22:55:40.941Z,14.50
2018-05-11T22:58:09.399Z,14.40
2018-05-11T23:00:55.508Z,14.40
2018-05-11T23:03:26.621Z,14.40
2018-05-11T23:08:51.438Z,14.30
2018-05-11T23:11:21.400Z,14.30
2018-05-11T23:13:51.038Z,14.40
2018-05-11T23:16:20.047Z,14.30
2018-05-11T23:18:48.140Z,14.30
2018-05-11T23:21:16.221Z,14.30
2018-05-11T23:23:44.316Z,14.30
2018-05-11T23:26:20.946Z,14.30
2018-05-11T23:28:51.016Z,14.30
2018-05-11T23:31:19.113Z,14.30
2018-05-11T23:33:47.197Z,14.30
2018-05-11T23:36:15.294Z,14.30
2018-05-11T23:38:44.348Z,14.20
2018-05-11T23:41:12.445Z,14.20
2018-05-11T23:43:40.523Z,14.20
2018-05-11T23:46:09.535Z,14.20
2018-05-11T23:48:38.645Z,14.10
2018-05-11T23:51:08.674Z,14.10
2018-05-11T23:53:37.674Z,14.10
2018-05-11T23:56:24.005Z,14.10
2018-05-11T23:58:52.093Z,14.10
